sensor_id;sensor_type;location;lat;lon;timestamp;pressure;altitude;pressure_sealevel;temperature;humidity
16793;BME280;8513;42.662;23.350;2023-04-21T00:01:58;94501.31;;;12.56;48.47
16793;BME280;8513;42.662;23.350;2023-04-21T00:04:24;94499.75;;;12.47;48.55
16793;BME280;8513;42.662;23.350;2023-04-21T00:06:50;94491.13;;;12.53;48.36
16793;BME280;8513;42.662;23.350;2023-04-21T00:09:17;94496.31;;;12.46;48.75
16793;BME280;8513;42.662;23.350;2023-04-21T00:11:43;94494.47;;;12.47;49.02
16793;BME280;8513;42.662;23.350;2023-04-21T00:14:08;94492.56;;;12.41;48.57
16793;BME280;8513;42.662;23.350;2023-04-21T00:16:33;94494.53;;;12.39;48.92
16793;BME280;8513;42.662;23.350;2023-04-21T00:18:59;94493.00;;;12.44;48.65
16793;BME280;8513;42.662;23.350;2023-04-21T00:21:24;94493.00;;;12.44;48.47
16793;BME280;8513;42.662;23.350;2023-04-21T00:23:50;94495.94;;;12.49;48.84
16793;BME280;8513;42.662;23.350;2023-04-21T00:26:16;94491.19;;;12.45;48.95
16793;BME280;8513;42.662;23.350;2023-04-21T00:28:41;94495.19;;;12.41;48.83
16793;BME280;8513;42.662;23.350;2023-04-21T00:31:07;94491.44;;;12.35;48.73
16793;BME280;8513;42.662;23.350;2023-04-21T00:33:32;94498.91;;;12.23;49.00
16793;BME280;8513;42.662;23.350;2023-04-21T00:35:58;94497.94;;;12.24;48.86
16793;BME280;8513;42.662;23.350;2023-04-21T00:38:23;94502.22;;;12.25;49.11
16793;BME280;8513;42.662;23.350;2023-04-21T00:40:49;94500.56;;;12.24;48.78
16793;BME280;8513;42.662;23.350;2023-04-21T00:43:14;94496.38;;;12.38;48.50
16793;BME280;8513;42.662;23.350;2023-04-21T00:45:40;94492.69;;;12.16;48.93
16793;BME280;8513;42.662;23.350;2023-04-21T00:48:05;94499.72;;;12.01;49.25
16793;BME280;8513;42.662;23.350;2023-04-21T00:50:31;94495.38;;;12.08;48.75
16793;BME280;8513;42.662;23.350;2023-04-21T00:52:57;94494.50;;;12.16;48.77
16793;BME280;8513;42.662;23.350;2023-04-21T00:55:24;94491.88;;;12.16;48.45
16793;BME280;8513;42.662;23.350;2023-04-21T00:57:50;94494.34;;;12.17;48.86
16793;BME280;8513;42.662;23.350;2023-04-21T01:00:16;94492.44;;;12.03;48.55
16793;BME280;8513;42.662;23.350;2023-04-21T01:02:43;94489.66;;;12.04;48.72
16793;BME280;8513;42.662;23.350;2023-04-21T01:05:10;94482.59;;;11.97;48.79
16793;BME280;8513;42.662;23.350;2023-04-21T01:07:36;94492.16;;;11.98;48.50
16793;BME280;8513;42.662;23.350;2023-04-21T01:10:03;94486.50;;;12.09;48.35
16793;BME280;8513;42.662;23.350;2023-04-21T01:12:28;94492.19;;;11.81;49.06
16793;BME280;8513;42.662;23.350;2023-04-21T01:14:54;94491.91;;;11.68;49.35
16793;BME280;8513;42.662;23.350;2023-04-21T01:17:20;94489.41;;;11.83;49.03
16793;BME280;8513;42.662;23.350;2023-04-21T01:19:45;94486.94;;;11.89;48.82
16793;BME280;8513;42.662;23.350;2023-04-21T01:22:12;94487.63;;;11.75;49.02
16793;BME280;8513;42.662;23.350;2023-04-21T01:24:45;94484.03;;;11.68;49.45
16793;BME280;8513;42.662;23.350;2023-04-21T01:27:16;94489.78;;;11.72;49.66
16793;BME280;8513;42.662;23.350;2023-04-21T01:29:44;94482.38;;;11.67;49.34
16793;BME280;8513;42.662;23.350;2023-04-21T01:32:29;94483.78;;;11.55;49.80
16793;BME280;8513;42.662;23.350;2023-04-21T01:34:56;94477.84;;;11.53;49.93
16793;BME280;8513;42.662;23.350;2023-04-21T01:37:25;94482.75;;;11.64;49.69
16793;BME280;8513;42.662;23.350;2023-04-21T01:39:54;94488.44;;;11.76;49.62
16793;BME280;8513;42.662;23.350;2023-04-21T01:42:21;94480.84;;;11.81;49.27
16793;BME280;8513;42.662;23.350;2023-04-21T01:44:47;94482.16;;;11.85;49.22
16793;BME280;8513;42.662;23.350;2023-04-21T01:47:14;94480.22;;;11.79;49.67
16793;BME280;8513;42.662;23.350;2023-04-21T01:49:40;94485.47;;;11.87;49.10
16793;BME280;8513;42.662;23.350;2023-04-21T01:52:05;94474.41;;;11.91;49.33
16793;BME280;8513;42.662;23.350;2023-04-21T01:54:31;94474.59;;;11.90;49.39
16793;BME280;8513;42.662;23.350;2023-04-21T01:56:56;94472.25;;;11.95;49.39
16793;BME280;8513;42.662;23.350;2023-04-21T01:59:22;94478.50;;;11.94;49.64
16793;BME280;8513;42.662;23.350;2023-04-21T02:01:47;94474.03;;;11.95;49.14
16793;BME280;8513;42.662;23.350;2023-04-21T02:04:13;94478.69;;;11.93;49.42
16793;BME280;8513;42.662;23.350;2023-04-21T02:06:38;94473.41;;;11.93;49.37
16793;BME280;8513;42.662;23.350;2023-04-21T02:09:03;94479.66;;;11.91;49.22
16793;BME280;8513;42.662;23.350;2023-04-21T02:11:29;94475.06;;;11.85;49.20
16793;BME280;8513;42.662;23.350;2023-04-21T02:13:55;94476.28;;;11.75;49.44
16793;BME280;8513;42.662;23.350;2023-04-21T02:16:21;94470.84;;;11.76;49.72
16793;BME280;8513;42.662;23.350;2023-04-21T02:18:51;94471.47;;;11.78;49.59
16793;BME280;8513;42.662;23.350;2023-04-21T02:21:18;94466.19;;;11.78;49.42
16793;BME280;8513;42.662;23.350;2023-04-21T02:23:43;94465.28;;;11.71;49.81
16793;BME280;8513;42.662;23.350;2023-04-21T02:26:09;94469.94;;;11.53;50.08
16793;BME280;8513;42.662;23.350;2023-04-21T02:28:34;94467.59;;;11.66;49.87
16793;BME280;8513;42.662;23.350;2023-04-21T02:31:00;94471.84;;;11.67;49.88
16793;BME280;8513;42.662;23.350;2023-04-21T02:33:25;94468.13;;;11.53;50.05
16793;BME280;8513;42.662;23.350;2023-04-21T02:35:50;94470.78;;;11.53;50.12
16793;BME280;8513;42.662;23.350;2023-04-21T02:38:16;94470.94;;;11.52;50.68
16793;BME280;8513;42.662;23.350;2023-04-21T02:40:41;94472.75;;;11.51;50.60
16793;BME280;8513;42.662;23.350;2023-04-21T02:43:07;94476.88;;;11.45;51.08
16793;BME280;8513;42.662;23.350;2023-04-21T02:45:32;94469.91;;;11.61;50.57
16793;BME280;8513;42.662;23.350;2023-04-21T02:47:58;94477.94;;;11.67;50.56
16793;BME280;8513;42.662;23.350;2023-04-21T02:50:24;94473.69;;;11.66;50.52
16793;BME280;8513;42.662;23.350;2023-04-21T02:52:49;94474.69;;;11.65;50.60
16793;BME280;8513;42.662;23.350;2023-04-21T02:55:15;94473.47;;;11.68;50.71
16793;BME280;8513;42.662;23.350;2023-04-21T02:57:40;94477.63;;;11.62;50.88
16793;BME280;8513;42.662;23.350;2023-04-21T03:00:06;94473.38;;;11.61;50.84
16793;BME280;8513;42.662;23.350;2023-04-21T03:02:32;94472.72;;;11.59;50.91
16793;BME280;8513;42.662;23.350;2023-04-21T03:04:57;94480.44;;;11.61;51.02
16793;BME280;8513;42.662;23.350;2023-04-21T03:07:23;94476.44;;;11.73;50.74
16793;BME280;8513;42.662;23.350;2023-04-21T03:09:48;94472.06;;;11.57;51.29
16793;BME280;8513;42.662;23.350;2023-04-21T03:12:14;94470.88;;;11.60;51.11
16793;BME280;8513;42.662;23.350;2023-04-21T03:14:39;94470.53;;;11.71;51.10
16793;BME280;8513;42.662;23.350;2023-04-21T03:17:04;94474.09;;;11.78;50.54
16793;BME280;8513;42.662;23.350;2023-04-21T03:19:30;94475.31;;;11.67;50.85
16793;BME280;8513;42.662;23.350;2023-04-21T03:21:55;94481.69;;;11.73;50.91
16793;BME280;8513;42.662;23.350;2023-04-21T03:24:21;94478.63;;;11.61;51.01
16793;BME280;8513;42.662;23.350;2023-04-21T03:26:47;94473.47;;;11.76;50.56
16793;BME280;8513;42.662;23.350;2023-04-21T03:29:12;94473.97;;;11.72;50.74
16793;BME280;8513;42.662;23.350;2023-04-21T03:31:38;94479.25;;;11.72;50.60
16793;BME280;8513;42.662;23.350;2023-04-21T03:34:03;94486.91;;;11.81;50.72
16793;BME280;8513;42.662;23.350;2023-04-21T03:36:30;94485.47;;;11.79;50.50
16793;BME280;8513;42.662;23.350;2023-04-21T03:38:55;94487.09;;;11.88;50.45
16793;BME280;8513;42.662;23.350;2023-04-21T03:41:23;94489.56;;;11.89;50.17
16793;BME280;8513;42.662;23.350;2023-04-21T03:43:51;94488.38;;;12.00;50.06
16793;BME280;8513;42.662;23.350;2023-04-21T03:46:18;94497.97;;;11.85;50.50
16793;BME280;8513;42.662;23.350;2023-04-21T03:48:44;94488.28;;;11.77;50.42
16793;BME280;8513;42.662;23.350;2023-04-21T03:51:10;94500.44;;;11.78;50.36
16793;BME280;8513;42.662;23.350;2023-04-21T03:53:36;94494.81;;;11.81;50.07
16793;BME280;8513;42.662;23.350;2023-04-21T03:56:01;94500.81;;;11.67;50.63
16793;BME280;8513;42.662;23.350;2023-04-21T03:58:27;94497.56;;;11.57;51.11
16793;BME280;8513;42.662;23.350;2023-04-21T04:00:52;94502.50;;;11.60;50.80
16793;BME280;8513;42.662;23.350;2023-04-21T04:03:18;94509.88;;;11.64;50.69
16793;BME280;8513;42.662;23.350;2023-04-21T04:05:43;94497.88;;;11.62;50.83
16793;BME280;8513;42.662;23.350;2023-04-21T04:08:08;94501.00;;;11.65;50.65
16793;BME280;8513;42.662;23.350;2023-04-21T04:10:34;94506.72;;;11.77;50.72
16793;BME280;8513;42.662;23.350;2023-04-21T04:13:00;94508.50;;;11.85;50.72
16793;BME280;8513;42.662;23.350;2023-04-21T04:15:25;94521.16;;;11.98;49.97
16793;BME280;8513;42.662;23.350;2023-04-21T04:17:51;94513.56;;;11.95;49.94
16793;BME280;8513;42.662;23.350;2023-04-21T04:20:16;94523.16;;;11.87;50.62
16793;BME280;8513;42.662;23.350;2023-04-21T04:22:42;94524.31;;;11.85;50.62
16793;BME280;8513;42.662;23.350;2023-04-21T04:25:07;94522.97;;;11.89;50.53
16793;BME280;8513;42.662;23.350;2023-04-21T04:27:33;94530.34;;;12.02;50.25
16793;BME280;8513;42.662;23.350;2023-04-21T04:29:59;94532.28;;;12.08;49.83
16793;BME280;8513;42.662;23.350;2023-04-21T04:32:25;94534.25;;;12.14;49.83
16793;BME280;8513;42.662;23.350;2023-04-21T04:34:53;94531.72;;;12.21;49.66
16793;BME280;8513;42.662;23.350;2023-04-21T04:37:20;94542.84;;;12.00;50.22
16793;BME280;8513;42.662;23.350;2023-04-21T04:39:46;94531.03;;;11.96;50.44
16793;BME280;8513;42.662;23.350;2023-04-21T04:42:12;94536.25;;;12.04;50.42
16793;BME280;8513;42.662;23.350;2023-04-21T04:44:38;94534.75;;;12.09;50.03
16793;BME280;8513;42.662;23.350;2023-04-21T04:47:05;94539.72;;;12.04;49.97
16793;BME280;8513;42.662;23.350;2023-04-21T04:49:31;94545.13;;;12.11;50.43
16793;BME280;8513;42.662;23.350;2023-04-21T04:51:57;94547.25;;;12.07;50.56
16793;BME280;8513;42.662;23.350;2023-04-21T04:54:22;94538.47;;;12.23;49.81
16793;BME280;8513;42.662;23.350;2023-04-21T04:56:49;94540.69;;;12.11;50.10
16793;BME280;8513;42.662;23.350;2023-04-21T04:59:15;94535.47;;;12.26;49.88
16793;BME280;8513;42.662;23.350;2023-04-21T05:01:40;94548.19;;;12.23;50.09
16793;BME280;8513;42.662;23.350;2023-04-21T05:04:06;94535.88;;;12.15;50.57
16793;BME280;8513;42.662;23.350;2023-04-21T05:06:31;94542.88;;;12.31;50.05
16793;BME280;8513;42.662;23.350;2023-04-21T05:08:57;94537.13;;;12.50;49.64
16793;BME280;8513;42.662;23.350;2023-04-21T05:11:22;94546.75;;;12.43;49.36
16793;BME280;8513;42.662;23.350;2023-04-21T05:13:48;94547.22;;;12.47;49.76
16793;BME280;8513;42.662;23.350;2023-04-21T05:16:13;94550.19;;;12.67;49.29
16793;BME280;8513;42.662;23.350;2023-04-21T05:18:39;94543.16;;;12.82;48.59
16793;BME280;8513;42.662;23.350;2023-04-21T05:21:04;94546.00;;;12.57;49.61
16793;BME280;8513;42.662;23.350;2023-04-21T05:23:30;94550.25;;;12.58;50.29
16793;BME280;8513;42.662;23.350;2023-04-21T05:25:55;94546.88;;;12.73;49.44
16793;BME280;8513;42.662;23.350;2023-04-21T05:28:21;94537.56;;;12.62;49.82
16793;BME280;8513;42.662;23.350;2023-04-21T05:30:47;94542.00;;;12.85;48.77
16793;BME280;8513;42.662;23.350;2023-04-21T05:33:12;94539.41;;;12.99;48.51
16793;BME280;8513;42.662;23.350;2023-04-21T05:35:38;94560.25;;;12.94;49.05
16793;BME280;8513;42.662;23.350;2023-04-21T05:38:04;94546.50;;;12.99;48.49
16793;BME280;8513;42.662;23.350;2023-04-21T05:40:30;94550.06;;;13.06;48.39
16793;BME280;8513;42.662;23.350;2023-04-21T05:42:55;94544.41;;;12.94;49.05
16793;BME280;8513;42.662;23.350;2023-04-21T05:45:21;94553.28;;;13.16;48.57
16793;BME280;8513;42.662;23.350;2023-04-21T05:47:46;94554.84;;;13.25;48.53
16793;BME280;8513;42.662;23.350;2023-04-21T05:50:12;94547.50;;;13.36;48.15
16793;BME280;8513;42.662;23.350;2023-04-21T05:52:37;94555.72;;;13.41;48.16
16793;BME280;8513;42.662;23.350;2023-04-21T05:55:03;94555.25;;;13.37;48.23
16793;BME280;8513;42.662;23.350;2023-04-21T05:57:29;94550.63;;;13.39;48.10
16793;BME280;8513;42.662;23.350;2023-04-21T05:59:54;94553.34;;;13.31;48.25
16793;BME280;8513;42.662;23.350;2023-04-21T06:02:20;94543.78;;;13.30;48.29
16793;BME280;8513;42.662;23.350;2023-04-21T06:04:46;94545.63;;;13.44;48.13
16793;BME280;8513;42.662;23.350;2023-04-21T06:07:11;94537.34;;;13.62;47.63
16793;BME280;8513;42.662;23.350;2023-04-21T06:09:40;94535.59;;;13.55;47.66
16793;BME280;8513;42.662;23.350;2023-04-21T06:12:06;94546.91;;;13.63;47.93
16793;BME280;8513;42.662;23.350;2023-04-21T06:14:32;94548.81;;;13.40;48.46
16793;BME280;8513;42.662;23.350;2023-04-21T06:16:57;94543.97;;;13.43;48.50
16793;BME280;8513;42.662;23.350;2023-04-21T06:19:23;94547.94;;;13.24;48.88
16793;BME280;8513;42.662;23.350;2023-04-21T06:21:49;94546.97;;;13.40;48.68
16793;BME280;8513;42.662;23.350;2023-04-21T06:24:15;94553.72;;;13.43;48.40
16793;BME280;8513;42.662;23.350;2023-04-21T06:26:40;94532.03;;;13.33;48.64
16793;BME280;8513;42.662;23.350;2023-04-21T06:29:06;94537.31;;;13.33;48.39
16793;BME280;8513;42.662;23.350;2023-04-21T06:31:31;94543.88;;;13.37;49.36
16793;BME280;8513;42.662;23.350;2023-04-21T06:33:56;94536.06;;;13.29;49.07
16793;BME280;8513;42.662;23.350;2023-04-21T06:36:22;94540.97;;;13.32;49.05
16793;BME280;8513;42.662;23.350;2023-04-21T06:38:48;94541.63;;;13.25;49.33
16793;BME280;8513;42.662;23.350;2023-04-21T06:41:13;94543.69;;;13.38;48.95
16793;BME280;8513;42.662;23.350;2023-04-21T06:43:39;94540.22;;;13.38;49.10
16793;BME280;8513;42.662;23.350;2023-04-21T06:46:05;94527.75;;;13.46;48.88
16793;BME280;8513;42.662;23.350;2023-04-21T06:48:30;94526.06;;;13.68;48.59
16793;BME280;8513;42.662;23.350;2023-04-21T06:50:56;94544.97;;;13.57;48.88
16793;BME280;8513;42.662;23.350;2023-04-21T06:53:21;94527.03;;;13.67;49.05
16793;BME280;8513;42.662;23.350;2023-04-21T06:55:47;94530.50;;;13.68;48.74
16793;BME280;8513;42.662;23.350;2023-04-21T06:58:13;94532.03;;;13.62;48.80
16793;BME280;8513;42.662;23.350;2023-04-21T07:00:39;94529.94;;;13.73;48.76
16793;BME280;8513;42.662;23.350;2023-04-21T07:03:04;94532.13;;;13.99;47.62
16793;BME280;8513;42.662;23.350;2023-04-21T07:05:30;94529.59;;;13.90;47.92
16793;BME280;8513;42.662;23.350;2023-04-21T07:07:56;94531.59;;;14.03;47.66
16793;BME280;8513;42.662;23.350;2023-04-21T07:10:25;94526.94;;;13.90;47.29
16793;BME280;8513;42.662;23.350;2023-04-21T07:12:50;94543.69;;;13.98;47.74
16793;BME280;8513;42.662;23.350;2023-04-21T07:15:16;94542.22;;;13.95;47.68
16793;BME280;8513;42.662;23.350;2023-04-21T07:17:41;94522.41;;;13.70;48.44
16793;BME280;8513;42.662;23.350;2023-04-21T07:20:07;94527.41;;;13.64;48.63
16793;BME280;8513;42.662;23.350;2023-04-21T07:22:33;94539.34;;;13.90;48.56
16793;BME280;8513;42.662;23.350;2023-04-21T07:25:01;94536.66;;;14.05;47.78
16793;BME280;8513;42.662;23.350;2023-04-21T07:27:33;94524.72;;;14.09;48.08
16793;BME280;8513;42.662;23.350;2023-04-21T07:30:01;94530.22;;;13.93;48.48
16793;BME280;8513;42.662;23.350;2023-04-21T07:32:27;94519.09;;;13.97;48.40
16793;BME280;8513;42.662;23.350;2023-04-21T07:34:52;94526.44;;;14.17;48.17
16793;BME280;8513;42.662;23.350;2023-04-21T07:37:17;94515.78;;;14.46;47.46
16793;BME280;8513;42.662;23.350;2023-04-21T07:39:43;94499.06;;;14.61;46.95
16793;BME280;8513;42.662;23.350;2023-04-21T07:42:08;94512.66;;;14.79;46.39
16793;BME280;8513;42.662;23.350;2023-04-21T07:44:35;94511.91;;;14.85;46.10
16793;BME280;8513;42.662;23.350;2023-04-21T07:47:00;94514.13;;;14.82;46.63
16793;BME280;8513;42.662;23.350;2023-04-21T07:49:26;94512.53;;;14.87;45.53
16793;BME280;8513;42.662;23.350;2023-04-21T07:51:51;94512.00;;;14.98;46.00
16793;BME280;8513;42.662;23.350;2023-04-21T07:54:17;94518.91;;;14.71;46.79
16793;BME280;8513;42.662;23.350;2023-04-21T07:56:42;94527.13;;;15.05;46.32
16793;BME280;8513;42.662;23.350;2023-04-21T07:59:07;94514.66;;;14.98;45.53
16793;BME280;8513;42.662;23.350;2023-04-21T08:01:33;94524.03;;;15.22;45.47
16793;BME280;8513;42.662;23.350;2023-04-21T08:03:58;94524.50;;;15.33;44.49
16793;BME280;8513;42.662;23.350;2023-04-21T08:06:24;94520.56;;;15.22;44.28
16793;BME280;8513;42.662;23.350;2023-04-21T08:08:49;94532.88;;;15.36;44.20
16793;BME280;8513;42.662;23.350;2023-04-21T08:11:15;94530.38;;;15.28;44.23
16793;BME280;8513;42.662;23.350;2023-04-21T08:13:40;94524.31;;;15.34;44.08
16793;BME280;8513;42.662;23.350;2023-04-21T08:16:06;94527.53;;;15.30;44.22
16793;BME280;8513;42.662;23.350;2023-04-21T08:18:31;94510.69;;;15.37;44.16
16793;BME280;8513;42.662;23.350;2023-04-21T08:20:57;94512.00;;;15.55;44.02
16793;BME280;8513;42.662;23.350;2023-04-21T08:23:23;94510.00;;;15.57;43.90
16793;BME280;8513;42.662;23.350;2023-04-21T08:25:48;94523.47;;;15.62;43.44
16793;BME280;8513;42.662;23.350;2023-04-21T08:28:13;94519.00;;;15.62;43.00
16793;BME280;8513;42.662;23.350;2023-04-21T08:30:40;94512.94;;;15.69;43.55
16793;BME280;8513;42.662;23.350;2023-04-21T08:33:06;94512.53;;;16.06;42.33
16793;BME280;8513;42.662;23.350;2023-04-21T08:35:33;94515.13;;;16.00;42.75
16793;BME280;8513;42.662;23.350;2023-04-21T08:38:00;94508.44;;;16.10;42.19
16793;BME280;8513;42.662;23.350;2023-04-21T08:40:31;94506.84;;;16.16;42.81
16793;BME280;8513;42.662;23.350;2023-04-21T08:42:57;94511.97;;;16.24;42.52
16793;BME280;8513;42.662;23.350;2023-04-21T08:45:22;94507.97;;;16.55;41.53
16793;BME280;8513;42.662;23.350;2023-04-21T08:47:48;94497.38;;;16.62;41.60
16793;BME280;8513;42.662;23.350;2023-04-21T08:50:13;94481.88;;;16.72;41.44
16793;BME280;8513;42.662;23.350;2023-04-21T08:52:39;94510.94;;;17.00;40.02
16793;BME280;8513;42.662;23.350;2023-04-21T08:55:05;94506.63;;;16.86;40.20
16793;BME280;8513;42.662;23.350;2023-04-21T08:57:31;94504.72;;;16.66;40.54
16793;BME280;8513;42.662;23.350;2023-04-21T08:59:57;94514.69;;;16.44;40.91
16793;BME280;8513;42.662;23.350;2023-04-21T09:02:23;94504.50;;;16.48;40.60
16793;BME280;8513;42.662;23.350;2023-04-21T09:04:50;94504.03;;;16.38;41.02
16793;BME280;8513;42.662;23.350;2023-04-21T09:07:36;94498.53;;;16.32;41.42
16793;BME280;8513;42.662;23.350;2023-04-21T09:10:04;94486.59;;;16.08;41.81
16793;BME280;8513;42.662;23.350;2023-04-21T09:12:30;94492.47;;;15.91;42.33
16793;BME280;8513;42.662;23.350;2023-04-21T09:14:55;94471.84;;;15.93;42.89
16793;BME280;8513;42.662;23.350;2023-04-21T09:17:29;94470.72;;;16.15;42.76
16793;BME280;8513;42.662;23.350;2023-04-21T09:19:57;94476.06;;;16.35;41.88
16793;BME280;8513;42.662;23.350;2023-04-21T09:22:36;94478.75;;;16.42;40.53
16793;BME280;8513;42.662;23.350;2023-04-21T09:25:02;94473.44;;;16.35;40.83
16793;BME280;8513;42.662;23.350;2023-04-21T09:27:27;94476.25;;;16.27;41.37
16793;BME280;8513;42.662;23.350;2023-04-21T09:29:53;94477.06;;;16.21;41.42
16793;BME280;8513;42.662;23.350;2023-04-21T09:32:19;94484.66;;;16.30;40.99
16793;BME280;8513;42.662;23.350;2023-04-21T09:34:45;94474.59;;;16.19;41.21
16793;BME280;8513;42.662;23.350;2023-04-21T09:37:11;94473.66;;;16.34;39.97
16793;BME280;8513;42.662;23.350;2023-04-21T09:39:38;94465.47;;;16.35;39.80
16793;BME280;8513;42.662;23.350;2023-04-21T09:42:04;94470.81;;;16.55;38.78
16793;BME280;8513;42.662;23.350;2023-04-21T09:44:29;94458.78;;;16.59;38.37
16793;BME280;8513;42.662;23.350;2023-04-21T09:47:02;94460.03;;;16.83;38.57
16793;BME280;8513;42.662;23.350;2023-04-21T09:49:29;94472.53;;;17.03;38.13
16793;BME280;8513;42.662;23.350;2023-04-21T09:51:59;94459.03;;;17.24;37.32
16793;BME280;8513;42.662;23.350;2023-04-21T09:54:30;94461.47;;;17.26;37.14
16793;BME280;8513;42.662;23.350;2023-04-21T09:57:00;94471.69;;;17.22;37.79
16793;BME280;8513;42.662;23.350;2023-04-21T09:59:34;94456.16;;;17.19;37.37
16793;BME280;8513;42.662;23.350;2023-04-21T10:02:04;94451.69;;;17.06;38.19
16793;BME280;8513;42.662;23.350;2023-04-21T10:04:30;94458.41;;;17.15;38.06
16793;BME280;8513;42.662;23.350;2023-04-21T10:06:58;94463.50;;;17.10;37.50
16793;BME280;8513;42.662;23.350;2023-04-21T10:09:26;94455.72;;;16.69;38.41
16793;BME280;8513;42.662;23.350;2023-04-21T10:11:54;94452.72;;;16.79;38.25
16793;BME280;8513;42.662;23.350;2023-04-21T10:14:20;94441.28;;;16.98;37.88
16793;BME280;8513;42.662;23.350;2023-04-21T10:16:55;94449.22;;;17.05;38.06
16793;BME280;8513;42.662;23.350;2023-04-21T10:19:26;94448.19;;;17.19;37.80
16793;BME280;8513;42.662;23.350;2023-04-21T10:21:55;94447.16;;;17.33;37.50
16793;BME280;8513;42.662;23.350;2023-04-21T10:24:27;94447.53;;;17.37;37.43
16793;BME280;8513;42.662;23.350;2023-04-21T10:26:56;94451.22;;;17.49;37.63
16793;BME280;8513;42.662;23.350;2023-04-21T10:29:31;94447.53;;;17.37;38.40
16793;BME280;8513;42.662;23.350;2023-04-21T10:31:57;94435.31;;;17.09;40.82
16793;BME280;8513;42.662;23.350;2023-04-21T10:34:34;94445.94;;;17.16;41.49
16793;BME280;8513;42.662;23.350;2023-04-21T10:42:34;94445.97;;;17.03;39.62
16793;BME280;8513;42.662;23.350;2023-04-21T10:45:06;94448.41;;;17.04;39.49
16793;BME280;8513;42.662;23.350;2023-04-21T10:47:39;94442.03;;;17.18;39.76
16793;BME280;8513;42.662;23.350;2023-04-21T10:50:12;94438.94;;;17.48;39.02
16793;BME280;8513;42.662;23.350;2023-04-21T10:52:37;94446.94;;;17.48;38.82
16793;BME280;8513;42.662;23.350;2023-04-21T10:55:05;94445.53;;;17.26;39.03
16793;BME280;8513;42.662;23.350;2023-04-21T10:57:33;94444.91;;;17.24;38.58
16793;BME280;8513;42.662;23.350;2023-04-21T10:59:59;94446.75;;;17.30;38.50
16793;BME280;8513;42.662;23.350;2023-04-21T11:02:25;94452.28;;;17.22;38.04
16793;BME280;8513;42.662;23.350;2023-04-21T11:04:52;94446.97;;;17.08;37.71
16793;BME280;8513;42.662;23.350;2023-04-21T11:07:19;94442.69;;;17.07;37.34
16793;BME280;8513;42.662;23.350;2023-04-21T11:09:47;94441.88;;;17.07;37.19
16793;BME280;8513;42.662;23.350;2023-04-21T11:12:14;94436.91;;;17.44;37.01
16793;BME280;8513;42.662;23.350;2023-04-21T11:14:42;94445.50;;;17.46;37.52
16793;BME280;8513;42.662;23.350;2023-04-21T11:17:15;94432.13;;;17.72;36.66
16793;BME280;8513;42.662;23.350;2023-04-21T11:19:43;94430.47;;;17.71;36.60
16793;BME280;8513;42.662;23.350;2023-04-21T11:22:09;94436.41;;;17.80;36.77
16793;BME280;8513;42.662;23.350;2023-04-21T11:24:35;94433.13;;;17.78;38.90
16793;BME280;8513;42.662;23.350;2023-04-21T11:27:00;94435.91;;;18.10;37.88
16793;BME280;8513;42.662;23.350;2023-04-21T11:29:26;94430.41;;;17.98;38.91
16793;BME280;8513;42.662;23.350;2023-04-21T11:31:54;94431.69;;;18.27;37.19
16793;BME280;8513;42.662;23.350;2023-04-21T11:34:20;94417.41;;;18.15;36.32
16793;BME280;8513;42.662;23.350;2023-04-21T11:36:47;94431.88;;;18.32;37.28
16793;BME280;8513;42.662;23.350;2023-04-21T11:39:15;94413.25;;;18.32;36.57
16793;BME280;8513;42.662;23.350;2023-04-21T11:41:43;94424.69;;;18.39;36.54
16793;BME280;8513;42.662;23.350;2023-04-21T11:44:10;94425.75;;;18.25;38.10
16793;BME280;8513;42.662;23.350;2023-04-21T11:46:36;94436.72;;;18.03;40.09
16793;BME280;8513;42.662;23.350;2023-04-21T11:49:02;94437.25;;;17.80;39.12
16793;BME280;8513;42.662;23.350;2023-04-21T11:51:36;94436.84;;;17.63;39.36
16793;BME280;8513;42.662;23.350;2023-04-21T11:54:04;94429.94;;;17.49;40.48
16793;BME280;8513;42.662;23.350;2023-04-21T11:56:38;94430.75;;;17.56;39.92
16793;BME280;8513;42.662;23.350;2023-04-21T11:59:11;94426.84;;;17.59;38.42
16793;BME280;8513;42.662;23.350;2023-04-21T12:01:51;94433.25;;;17.31;38.46
16793;BME280;8513;42.662;23.350;2023-04-21T12:04:19;94433.41;;;17.56;36.04
16793;BME280;8513;42.662;23.350;2023-04-21T12:06:47;94434.47;;;17.29;36.31
16793;BME280;8513;42.662;23.350;2023-04-21T12:09:19;94431.63;;;17.24;36.05
16793;BME280;8513;42.662;23.350;2023-04-21T12:11:52;94436.50;;;17.27;36.85
16793;BME280;8513;42.662;23.350;2023-04-21T12:14:20;94445.53;;;17.32;35.55
16793;BME280;8513;42.662;23.350;2023-04-21T12:16:52;94429.09;;;17.55;36.31
16793;BME280;8513;42.662;23.350;2023-04-21T12:19:34;94442.94;;;17.84;35.80
16793;BME280;8513;42.662;23.350;2023-04-21T12:22:00;94440.31;;;17.71;36.99
16793;BME280;8513;42.662;23.350;2023-04-21T12:24:26;94442.28;;;18.02;37.13
16793;BME280;8513;42.662;23.350;2023-04-21T12:26:52;94435.72;;;18.36;34.75
16793;BME280;8513;42.662;23.350;2023-04-21T12:29:18;94428.75;;;18.42;36.18
16793;BME280;8513;42.662;23.350;2023-04-21T12:31:43;94433.59;;;18.51;35.50
16793;BME280;8513;42.662;23.350;2023-04-21T12:34:09;94425.69;;;18.70;35.21
16793;BME280;8513;42.662;23.350;2023-04-21T12:36:34;94426.66;;;18.44;34.99
16793;BME280;8513;42.662;23.350;2023-04-21T12:39:00;94417.97;;;18.30;36.19
16793;BME280;8513;42.662;23.350;2023-04-21T12:41:26;94429.34;;;18.44;35.63
16793;BME280;8513;42.662;23.350;2023-04-21T12:43:51;94426.66;;;18.44;35.78
16793;BME280;8513;42.662;23.350;2023-04-21T12:46:17;94425.16;;;18.86;34.62
16793;BME280;8513;42.662;23.350;2023-04-21T12:48:42;94421.44;;;18.62;35.80
16793;BME280;8513;42.662;23.350;2023-04-21T12:51:08;94423.81;;;18.70;33.47
16793;BME280;8513;42.662;23.350;2023-04-21T12:53:33;94416.66;;;18.71;33.59
16793;BME280;8513;42.662;23.350;2023-04-21T12:56:01;94420.06;;;19.10;32.47
16793;BME280;8513;42.662;23.350;2023-04-21T12:58:26;94414.38;;;19.43;32.77
16793;BME280;8513;42.662;23.350;2023-04-21T13:00:51;94427.59;;;19.38;32.79
16793;BME280;8513;42.662;23.350;2023-04-21T13:03:17;94418.47;;;19.46;32.66